sensor_id;sensor_type;location;lat;lon;timestamp;P1;durP1;ratioP1;P2;durP2;ratioP2
62332;SDS011;48624;49.812;8.562;2023-01-23T00:00:31;18.90;;;8.83;;
62332;SDS011;48624;49.812;8.562;2023-01-23T00:02:57;17.47;;;9.57;;
62332;SDS011;48624;49.812;8.562;2023-01-23T00:05:23;17.20;;;8.80;;
62332;SDS011;48624;49.812;8.562;2023-01-23T00:07:48;17.67;;;8.90;;
62332;SDS011;48624;49.812;8.562;2023-01-23T00:10:13;14.80;;;7.97;;
62332;SDS011;48624;49.812;8.562;2023-01-23T00:12:43;18.57;;;9.47;;
62332;SDS011;48624;49.812;8.562;2023-01-23T00:15:09;16.60;;;8.60;;
62332;SDS011;48624;49.812;8.562;2023-01-23T00:17:35;14.17;;;8.07;;
62332;SDS011;48624;49.812;8.562;2023-01-23T00:20:01;12.83;;;7.67;;
62332;SDS011;48624;49.812;8.562;2023-01-23T00:22:28;13.43;;;7.77;;
62332;SDS011;48624;49.812;8.562;2023-01-23T00:24:53;13.43;;;7.13;;
62332;SDS011;48624;49.812;8.562;2023-01-23T00:27:19;14.77;;;8.27;;
62332;SDS011;48624;49.812;8.562;2023-01-23T00:29:44;14.33;;;7.33;;
62332;SDS011;48624;49.812;8.562;2023-01-23T00:32:10;13.10;;;7.17;;
62332;SDS011;48624;49.812;8.562;2023-01-23T00:34:36;13.90;;;7.43;;
62332;SDS011;48624;49.812;8.562;2023-01-23T00:37:02;13.83;;;6.93;;
62332;SDS011;48624;49.812;8.562;2023-01-23T00:39:28;12.77;;;7.10;;
62332;SDS011;48624;49.812;8.562;2023-01-23T00:41:54;13.33;;;7.47;;
62332;SDS011;48624;49.812;8.562;2023-01-23T00:44:20;14.47;;;8.30;;
62332;SDS011;48624;49.812;8.562;2023-01-23T00:46:45;12.77;;;6.97;;
62332;SDS011;48624;49.812;8.562;2023-01-23T00:49:11;14.83;;;7.63;;
62332;SDS011;48624;49.812;8.562;2023-01-23T00:51:36;13.03;;;6.67;;
62332;SDS011;48624;49.812;8.562;2023-01-23T00:54:02;13.93;;;7.20;;
62332;SDS011;48624;49.812;8.562;2023-01-23T00:56:27;12.73;;;7.47;;
62332;SDS011;48624;49.812;8.562;2023-01-23T00:58:53;14.03;;;6.93;;
62332;SDS011;48624;49.812;8.562;2023-01-23T01:01:19;10.53;;;5.97;;
62332;SDS011;48624;49.812;8.562;2023-01-23T01:03:46;11.10;;;5.60;;
62332;SDS011;48624;49.812;8.562;2023-01-23T01:06:12;13.13;;;6.07;;
62332;SDS011;48624;49.812;8.562;2023-01-23T01:08:39;13.13;;;7.03;;
62332;SDS011;48624;49.812;8.562;2023-01-23T01:11:05;11.97;;;6.53;;
62332;SDS011;48624;49.812;8.562;2023-01-23T01:13:31;13.70;;;6.40;;
62332;SDS011;48624;49.812;8.562;2023-01-23T01:15:57;9.63;;;5.80;;
62332;SDS011;48624;49.812;8.562;2023-01-23T01:18:25;13.03;;;5.77;;
62332;SDS011;48624;49.812;8.562;2023-01-23T01:20:51;13.17;;;6.53;;
62332;SDS011;48624;49.812;8.562;2023-01-23T01:23:18;13.57;;;7.00;;
62332;SDS011;48624;49.812;8.562;2023-01-23T01:25:44;11.90;;;6.07;;
62332;SDS011;48624;49.812;8.562;2023-01-23T01:28:10;10.23;;;5.87;;
62332;SDS011;48624;49.812;8.562;2023-01-23T01:30:35;11.83;;;5.93;;
62332;SDS011;48624;49.812;8.562;2023-01-23T01:33:01;12.90;;;6.30;;
62332;SDS011;48624;49.812;8.562;2023-01-23T01:35:26;11.87;;;6.00;;
62332;SDS011;48624;49.812;8.562;2023-01-23T01:37:52;10.90;;;5.63;;
62332;SDS011;48624;49.812;8.562;2023-01-23T01:40:21;11.27;;;6.23;;
62332;SDS011;48624;49.812;8.562;2023-01-23T01:42:49;12.60;;;6.27;;
62332;SDS011;48624;49.812;8.562;2023-01-23T01:48:23;14.47;;;6.83;;
62332;SDS011;48624;49.812;8.562;2023-01-23T01:50:51;12.37;;;6.47;;
62332;SDS011;48624;49.812;8.562;2023-01-23T01:53:17;13.73;;;7.00;;
62332;SDS011;48624;49.812;8.562;2023-01-23T01:55:45;13.20;;;6.00;;
62332;SDS011;48624;49.812;8.562;2023-01-23T01:58:10;13.73;;;6.47;;
62332;SDS011;48624;49.812;8.562;2023-01-23T02:00:37;13.93;;;6.53;;
62332;SDS011;48624;49.812;8.562;2023-01-23T02:03:03;13.50;;;5.93;;
62332;SDS011;48624;49.812;8.562;2023-01-23T02:05:30;13.93;;;6.97;;
62332;SDS011;48624;49.812;8.562;2023-01-23T02:08:01;12.63;;;6.90;;
62332;SDS011;48624;49.812;8.562;2023-01-23T02:10:38;11.57;;;6.30;;
62332;SDS011;48624;49.812;8.562;2023-01-23T02:16:02;13.20;;;6.97;;
62332;SDS011;48624;49.812;8.562;2023-01-23T02:18:33;13.30;;;5.97;;
62332;SDS011;48624;49.812;8.562;2023-01-23T02:21:00;13.57;;;7.20;;
62332;SDS011;48624;49.812;8.562;2023-01-23T02:26:08;13.03;;;6.60;;
62332;SDS011;48624;49.812;8.562;2023-01-23T02:28:39;15.27;;;7.37;;
62332;SDS011;48624;49.812;8.562;2023-01-23T02:31:06;18.17;;;8.17;;
62332;SDS011;48624;49.812;8.562;2023-01-23T02:35:58;14.77;;;7.47;;
62332;SDS011;48624;49.812;8.562;2023-01-23T02:38:25;15.77;;;8.00;;
62332;SDS011;48624;49.812;8.562;2023-01-23T02:40:55;15.80;;;8.03;;
62332;SDS011;48624;49.812;8.562;2023-01-23T02:43:24;16.00;;;7.33;;
62332;SDS011;48624;49.812;8.562;2023-01-23T02:45:52;15.33;;;6.87;;
62332;SDS011;48624;49.812;8.562;2023-01-23T02:48:18;15.47;;;7.53;;
62332;SDS011;48624;49.812;8.562;2023-01-23T02:50:44;20.50;;;8.97;;
62332;SDS011;48624;49.812;8.562;2023-01-23T02:53:10;16.20;;;7.53;;
62332;SDS011;48624;49.812;8.562;2023-01-23T02:55:36;17.67;;;8.23;;
62332;SDS011;48624;49.812;8.562;2023-01-23T02:58:03;17.97;;;8.23;;
62332;SDS011;48624;49.812;8.562;2023-01-23T03:00:47;16.73;;;8.90;;
62332;SDS011;48624;49.812;8.562;2023-01-23T03:03:12;16.00;;;8.20;;
62332;SDS011;48624;49.812;8.562;2023-01-23T03:05:40;17.67;;;8.57;;
62332;SDS011;48624;49.812;8.562;2023-01-23T03:08:05;18.33;;;9.53;;
62332;SDS011;48624;49.812;8.562;2023-01-23T03:10:31;19.80;;;8.30;;
62332;SDS011;48624;49.812;8.562;2023-01-23T03:12:56;15.47;;;8.40;;
62332;SDS011;48624;49.812;8.562;2023-01-23T03:15:31;18.93;;;9.43;;
62332;SDS011;48624;49.812;8.562;2023-01-23T03:17:57;14.43;;;8.17;;
62332;SDS011;48624;49.812;8.562;2023-01-23T03:20:22;16.73;;;7.77;;
62332;SDS011;48624;49.812;8.562;2023-01-23T03:22:50;16.90;;;9.03;;
62332;SDS011;48624;49.812;8.562;2023-01-23T03:25:16;16.63;;;8.07;;
62332;SDS011;48624;49.812;8.562;2023-01-23T03:27:42;17.40;;;8.27;;
62332;SDS011;48624;49.812;8.562;2023-01-23T03:30:07;17.40;;;7.97;;
62332;SDS011;48624;49.812;8.562;2023-01-23T03:32:45;13.83;;;7.90;;
62332;SDS011;48624;49.812;8.562;2023-01-23T03:35:11;13.60;;;7.23;;
62332;SDS011;48624;49.812;8.562;2023-01-23T03:37:38;16.43;;;8.03;;
62332;SDS011;48624;49.812;8.562;2023-01-23T03:40:04;14.23;;;7.20;;
62332;SDS011;48624;49.812;8.562;2023-01-23T03:42:48;13.73;;;7.00;;
62332;SDS011;48624;49.812;8.562;2023-01-23T03:45:13;15.13;;;7.37;;
62332;SDS011;48624;49.812;8.562;2023-01-23T03:47:39;15.70;;;7.77;;
62332;SDS011;48624;49.812;8.562;2023-01-23T03:50:04;13.93;;;7.53;;
62332;SDS011;48624;49.812;8.562;2023-01-23T03:52:30;14.50;;;6.90;;
62332;SDS011;48624;49.812;8.562;2023-01-23T03:54:56;15.43;;;7.63;;
62332;SDS011;48624;49.812;8.562;2023-01-23T03:57:21;14.83;;;7.70;;
62332;SDS011;48624;49.812;8.562;2023-01-23T03:59:47;14.23;;;7.27;;
62332;SDS011;48624;49.812;8.562;2023-01-23T04:02:12;18.83;;;8.20;;
62332;SDS011;48624;49.812;8.562;2023-01-23T04:04:37;11.47;;;6.17;;
62332;SDS011;48624;49.812;8.562;2023-01-23T04:07:03;14.07;;;7.07;;
62332;SDS011;48624;49.812;8.562;2023-01-23T04:09:30;15.27;;;7.37;;
62332;SDS011;48624;49.812;8.562;2023-01-23T04:11:56;15.50;;;7.23;;
62332;SDS011;48624;49.812;8.562;2023-01-23T04:14:23;12.83;;;6.57;;
62332;SDS011;48624;49.812;8.562;2023-01-23T04:16:49;16.13;;;7.53;;
62332;SDS011;48624;49.812;8.562;2023-01-23T04:19:15;13.10;;;6.50;;
62332;SDS011;48624;49.812;8.562;2023-01-23T04:21:44;11.90;;;6.20;;
62332;SDS011;48624;49.812;8.562;2023-01-23T04:24:13;16.50;;;7.67;;
62332;SDS011;48624;49.812;8.562;2023-01-23T04:26:39;13.13;;;6.23;;
62332;SDS011;48624;49.812;8.562;2023-01-23T04:29:04;14.10;;;6.60;;
62332;SDS011;48624;49.812;8.562;2023-01-23T04:31:29;13.53;;;7.00;;
62332;SDS011;48624;49.812;8.562;2023-01-23T04:33:55;12.57;;;7.03;;
62332;SDS011;48624;49.812;8.562;2023-01-23T04:36:20;11.77;;;6.20;;
62332;SDS011;48624;49.812;8.562;2023-01-23T04:38:46;13.50;;;6.90;;
62332;SDS011;48624;49.812;8.562;2023-01-23T04:41:24;13.47;;;6.63;;
62332;SDS011;48624;49.812;8.562;2023-01-23T04:43:51;10.63;;;5.50;;
62332;SDS011;48624;49.812;8.562;2023-01-23T04:46:16;12.77;;;6.77;;
62332;SDS011;48624;49.812;8.562;2023-01-23T04:48:42;14.07;;;6.63;;
62332;SDS011;48624;49.812;8.562;2023-01-23T04:51:07;13.00;;;6.00;;
62332;SDS011;48624;49.812;8.562;2023-01-23T04:53:33;12.37;;;6.30;;
62332;SDS011;48624;49.812;8.562;2023-01-23T04:55:58;12.77;;;6.27;;
62332;SDS011;48624;49.812;8.562;2023-01-23T04:58:24;12.07;;;5.87;;
62332;SDS011;48624;49.812;8.562;2023-01-23T05:00:49;5.87;;;3.57;;
62332;SDS011;48624;49.812;8.562;2023-01-23T05:03:15;9.40;;;4.70;;
62332;SDS011;48624;49.812;8.562;2023-01-23T05:05:41;10.17;;;4.87;;
62332;SDS011;48624;49.812;8.562;2023-01-23T05:08:08;9.03;;;4.57;;
62332;SDS011;48624;49.812;8.562;2023-01-23T05:10:34;7.90;;;4.60;;
62332;SDS011;48624;49.812;8.562;2023-01-23T05:12:59;9.60;;;6.27;;
62332;SDS011;48624;49.812;8.562;2023-01-23T05:15:24;14.13;;;7.30;;
62332;SDS011;48624;49.812;8.562;2023-01-23T05:17:49;7.83;;;4.60;;
62332;SDS011;48624;49.812;8.562;2023-01-23T05:20:15;8.90;;;5.53;;
62332;SDS011;48624;49.812;8.562;2023-01-23T05:22:40;9.03;;;5.10;;
62332;SDS011;48624;49.812;8.562;2023-01-23T05:25:16;6.67;;;4.13;;
62332;SDS011;48624;49.812;8.562;2023-01-23T05:27:43;8.10;;;4.67;;
62332;SDS011;48624;49.812;8.562;2023-01-23T05:30:08;7.13;;;4.63;;
62332;SDS011;48624;49.812;8.562;2023-01-23T05:32:34;7.87;;;3.93;;
62332;SDS011;48624;49.812;8.562;2023-01-23T05:34:59;8.83;;;5.10;;
62332;SDS011;48624;49.812;8.562;2023-01-23T05:37:24;8.70;;;4.50;;
62332;SDS011;48624;49.812;8.562;2023-01-23T05:39:50;9.53;;;4.80;;
62332;SDS011;48624;49.812;8.562;2023-01-23T05:42:15;7.43;;;4.37;;
62332;SDS011;48624;49.812;8.562;2023-01-23T05:44:40;7.10;;;3.63;;
62332;SDS011;48624;49.812;8.562;2023-01-23T05:47:06;7.83;;;4.77;;
62332;SDS011;48624;49.812;8.562;2023-01-23T05:49:31;8.37;;;4.70;;
62332;SDS011;48624;49.812;8.562;2023-01-23T05:51:56;7.53;;;3.80;;
62332;SDS011;48624;49.812;8.562;2023-01-23T05:54:21;6.63;;;3.67;;
62332;SDS011;48624;49.812;8.562;2023-01-23T05:56:47;7.60;;;4.10;;
62332;SDS011;48624;49.812;8.562;2023-01-23T05:59:12;7.87;;;4.20;;
62332;SDS011;48624;49.812;8.562;2023-01-23T06:01:37;7.27;;;4.17;;
62332;SDS011;48624;49.812;8.562;2023-01-23T06:04:03;6.33;;;3.63;;
62332;SDS011;48624;49.812;8.562;2023-01-23T06:06:28;8.17;;;4.37;;
62332;SDS011;48624;49.812;8.562;2023-01-23T06:08:53;8.80;;;3.87;;
62332;SDS011;48624;49.812;8.562;2023-01-23T06:11:19;9.03;;;5.03;;
62332;SDS011;48624;49.812;8.562;2023-01-23T06:13:44;8.50;;;4.10;;
62332;SDS011;48624;49.812;8.562;2023-01-23T06:16:09;7.87;;;4.47;;
62332;SDS011;48624;49.812;8.562;2023-01-23T06:18:34;5.40;;;3.73;;
62332;SDS011;48624;49.812;8.562;2023-01-23T06:21:00;6.60;;;3.93;;
62332;SDS011;48624;49.812;8.562;2023-01-23T06:23:26;9.10;;;4.23;;
62332;SDS011;48624;49.812;8.562;2023-01-23T06:25:52;7.47;;;3.77;;
62332;SDS011;48624;49.812;8.562;2023-01-23T06:28:17;7.33;;;3.70;;
62332;SDS011;48624;49.812;8.562;2023-01-23T06:30:42;7.30;;;3.33;;
62332;SDS011;48624;49.812;8.562;2023-01-23T06:33:07;6.77;;;3.70;;
62332;SDS011;48624;49.812;8.562;2023-01-23T06:35:33;8.77;;;4.40;;
62332;SDS011;48624;49.812;8.562;2023-01-23T06:37:58;6.00;;;3.50;;
62332;SDS011;48624;49.812;8.562;2023-01-23T06:40:23;9.10;;;4.93;;
62332;SDS011;48624;49.812;8.562;2023-01-23T06:42:49;8.33;;;5.13;;
62332;SDS011;48624;49.812;8.562;2023-01-23T06:45:19;8.90;;;4.53;;
62332;SDS011;48624;49.812;8.562;2023-01-23T06:47:44;6.90;;;3.63;;
62332;SDS011;48624;49.812;8.562;2023-01-23T06:50:09;5.97;;;3.70;;
62332;SDS011;48624;49.812;8.562;2023-01-23T06:52:34;5.60;;;3.57;;
62332;SDS011;48624;49.812;8.562;2023-01-23T06:55:00;7.43;;;4.77;;
62332;SDS011;48624;49.812;8.562;2023-01-23T06:57:25;7.47;;;4.40;;
62332;SDS011;48624;49.812;8.562;2023-01-23T06:59:50;7.57;;;4.10;;
62332;SDS011;48624;49.812;8.562;2023-01-23T07:02:16;7.80;;;4.23;;
62332;SDS011;48624;49.812;8.562;2023-01-23T07:04:41;8.63;;;3.83;;
62332;SDS011;48624;49.812;8.562;2023-01-23T07:07:06;7.17;;;3.93;;
62332;SDS011;48624;49.812;8.562;2023-01-23T07:09:31;7.50;;;4.20;;
62332;SDS011;48624;49.812;8.562;2023-01-23T07:11:57;10.77;;;4.70;;
62332;SDS011;48624;49.812;8.562;2023-01-23T07:14:22;6.63;;;3.90;;
62332;SDS011;48624;49.812;8.562;2023-01-23T07:16:48;7.53;;;4.07;;
62332;SDS011;48624;49.812;8.562;2023-01-23T07:19:13;7.10;;;4.37;;
62332;SDS011;48624;49.812;8.562;2023-01-23T07:21:38;9.07;;;4.77;;
62332;SDS011;48624;49.812;8.562;2023-01-23T07:24:04;9.00;;;5.07;;
62332;SDS011;48624;49.812;8.562;2023-01-23T07:26:29;8.60;;;4.83;;
62332;SDS011;48624;49.812;8.562;2023-01-23T07:28:55;13.63;;;4.63;;
62332;SDS011;48624;49.812;8.562;2023-01-23T07:31:20;8.83;;;4.20;;
62332;SDS011;48624;49.812;8.562;2023-01-23T07:33:46;7.87;;;4.70;;
62332;SDS011;48624;49.812;8.562;2023-01-23T07:36:11;7.23;;;4.03;;
62332;SDS011;48624;49.812;8.562;2023-01-23T07:38:38;10.13;;;4.80;;
62332;SDS011;48624;49.812;8.562;2023-01-23T07:41:04;10.13;;;4.60;;
62332;SDS011;48624;49.812;8.562;2023-01-23T07:43:29;6.40;;;4.23;;
62332;SDS011;48624;49.812;8.562;2023-01-23T07:45:57;6.63;;;3.57;;
62332;SDS011;48624;49.812;8.562;2023-01-23T07:48:23;8.73;;;4.83;;
62332;SDS011;48624;49.812;8.562;2023-01-23T07:50:48;6.80;;;3.83;;
62332;SDS011;48624;49.812;8.562;2023-01-23T07:53:13;8.60;;;4.50;;
62332;SDS011;48624;49.812;8.562;2023-01-23T07:55:38;8.37;;;4.17;;
62332;SDS011;48624;49.812;8.562;2023-01-23T07:58:04;6.63;;;3.83;;
62332;SDS011;48624;49.812;8.562;2023-01-23T08:00:29;6.57;;;3.63;;
62332;SDS011;48624;49.812;8.562;2023-01-23T08:02:55;7.13;;;3.87;;
62332;SDS011;48624;49.812;8.562;2023-01-23T08:05:20;5.70;;;3.80;;
62332;SDS011;48624;49.812;8.562;2023-01-23T08:07:46;7.60;;;4.77;;
62332;SDS011;48624;49.812;8.562;2023-01-23T08:10:11;6.77;;;4.20;;
62332;SDS011;48624;49.812;8.562;2023-01-23T08:12:36;8.37;;;4.40;;
62332;SDS011;48624;49.812;8.562;2023-01-23T08:15:02;9.20;;;4.47;;
62332;SDS011;48624;49.812;8.562;2023-01-23T08:17:27;8.77;;;4.90;;
62332;SDS011;48624;49.812;8.562;2023-01-23T08:19:53;8.53;;;4.73;;
62332;SDS011;48624;49.812;8.562;2023-01-23T08:22:18;7.97;;;4.67;;
62332;SDS011;48624;49.812;8.562;2023-01-23T08:24:43;9.70;;;5.07;;
62332;SDS011;48624;49.812;8.562;2023-01-23T08:27:08;10.23;;;5.37;;
62332;SDS011;48624;49.812;8.562;2023-01-23T08:29:34;9.37;;;5.77;;
62332;SDS011;48624;49.812;8.562;2023-01-23T08:31:59;12.50;;;6.63;;
62332;SDS011;48624;49.812;8.562;2023-01-23T08:34:25;13.87;;;6.87;;
62332;SDS011;48624;49.812;8.562;2023-01-23T08:36:50;9.93;;;5.93;;
62332;SDS011;48624;49.812;8.562;2023-01-23T08:39:16;8.07;;;5.03;;
62332;SDS011;48624;49.812;8.562;2023-01-23T08:41:42;9.50;;;5.80;;
62332;SDS011;48624;49.812;8.562;2023-01-23T08:44:08;6.90;;;3.47;;
62332;SDS011;48624;49.812;8.562;2023-01-23T08:46:33;6.73;;;4.10;;
62332;SDS011;48624;49.812;8.562;2023-01-23T08:48:58;8.47;;;4.10;;
62332;SDS011;48624;49.812;8.562;2023-01-23T08:51:24;6.80;;;3.83;;
62332;SDS011;48624;49.812;8.562;2023-01-23T08:53:51;6.23;;;3.90;;
62332;SDS011;48624;49.812;8.562;2023-01-23T08:56:18;8.23;;;4.13;;
62332;SDS011;48624;49.812;8.562;2023-01-23T08:58:45;8.40;;;4.17;;
62332;SDS011;48624;49.812;8.562;2023-01-23T09:01:11;7.20;;;4.53;;
62332;SDS011;48624;49.812;8.562;2023-01-23T09:03:42;6.73;;;3.80;;
62332;SDS011;48624;49.812;8.562;2023-01-23T09:06:09;7.37;;;4.23;;
62332;SDS011;48624;49.812;8.562;2023-01-23T09:08:35;6.00;;;3.73;;
62332;SDS011;48624;49.812;8.562;2023-01-23T09:11:01;6.30;;;3.77;;
62332;SDS011;48624;49.812;8.562;2023-01-23T09:13:28;5.90;;;3.97;;
62332;SDS011;48624;49.812;8.562;2023-01-23T09:15:54;5.80;;;4.00;;
62332;SDS011;48624;49.812;8.562;2023-01-23T09:18:19;7.97;;;4.13;;
62332;SDS011;48624;49.812;8.562;2023-01-23T09:20:46;6.40;;;3.73;;
62332;SDS011;48624;49.812;8.562;2023-01-23T09:23:12;7.00;;;4.23;;
62332;SDS011;48624;49.812;8.562;2023-01-23T09:25:37;4.53;;;3.00;;
62332;SDS011;48624;49.812;8.562;2023-01-23T09:28:03;7.80;;;4.33;;
62332;SDS011;48624;49.812;8.562;2023-01-23T09:30:28;8.70;;;5.30;;
62332;SDS011;48624;49.812;8.562;2023-01-23T09:32:53;8.30;;;5.47;;
62332;SDS011;48624;49.812;8.562;2023-01-23T09:35:19;13.53;;;6.37;;
62332;SDS011;48624;49.812;8.562;2023-01-23T09:37:44;9.90;;;6.07;;
62332;SDS011;48624;49.812;8.562;2023-01-23T09:40:34;6.90;;;4.50;;
62332;SDS011;48624;49.812;8.562;2023-01-23T09:45:42;7.20;;;4.13;;
62332;SDS011;48624;49.812;8.562;2023-01-23T09:48:19;7.43;;;4.93;;
62332;SDS011;48624;49.812;8.562;2023-01-23T09:51:09;6.43;;;4.23;;
62332;SDS011;48624;49.812;8.562;2023-01-23T09:53:37;6.67;;;3.90;;
62332;SDS011;48624;49.812;8.562;2023-01-23T09:56:12;6.73;;;4.10;;
62332;SDS011;48624;49.812;8.562;2023-01-23T10:01:57;7.90;;;4.60;;
62332;SDS011;48624;49.812;8.562;2023-01-23T10:04:22;7.70;;;4.07;;
62332;SDS011;48624;49.812;8.562;2023-01-23T10:06:52;15.23;;;7.17;;
62332;SDS011;48624;49.812;8.562;2023-01-23T10:10:44;10.80;;;5.37;;
62332;SDS011;48624;49.812;8.562;2023-01-23T10:13:07;7.37;;;4.60;;
62332;SDS011;48624;49.812;8.562;2023-01-23T10:18:23;6.97;;;4.67;;
62332;SDS011;48624;49.812;8.562;2023-01-23T10:26:07;7.37;;;4.10;;
62332;SDS011;48624;49.812;8.562;2023-01-23T10:28:39;5.63;;;3.63;;
62332;SDS011;48624;49.812;8.562;2023-01-23T10:31:11;6.33;;;3.97;;
62332;SDS011;48624;49.812;8.562;2023-01-23T10:36:22;5.40;;;3.73;;
62332;SDS011;48624;49.812;8.562;2023-01-23T10:41:23;7.40;;;4.03;;
62332;SDS011;48624;49.812;8.562;2023-01-23T10:43:49;7.17;;;4.30;;
62332;SDS011;48624;49.812;8.562;2023-01-23T10:46:20;6.93;;;4.20;;
62332;SDS011;48624;49.812;8.562;2023-01-23T10:48:52;6.70;;;4.10;;
62332;SDS011;48624;49.812;8.562;2023-01-23T10:51:31;7.80;;;4.23;;
62332;SDS011;48624;49.812;8.562;2023-01-23T10:56:50;5.53;;;3.37;;
62332;SDS011;48624;49.812;8.562;2023-01-23T11:04:25;5.73;;;3.73;;
62332;SDS011;48624;49.812;8.562;2023-01-23T11:07:07;7.07;;;4.10;;
62332;SDS011;48624;49.812;8.562;2023-01-23T11:09:52;5.73;;;3.70;;
62332;SDS011;48624;49.812;8.562;2023-01-23T11:14:49;7.83;;;4.10;;
62332;SDS011;48624;49.812;8.562;2023-01-23T11:19:43;6.83;;;3.87;;
62332;SDS011;48624;49.812;8.562;2023-01-23T11:22:25;7.10;;;4.07;;
62332;SDS011;48624;49.812;8.562;2023-01-23T11:24:53;5.23;;;3.27;;
62332;SDS011;48624;49.812;8.562;2023-01-23T11:27:27;6.03;;;3.77;;
62332;SDS011;48624;49.812;8.562;2023-01-23T11:32:51;5.75;;;3.60;;
62332;SDS011;48624;49.812;8.562;2023-01-23T11:35:26;7.20;;;4.13;;
62332;SDS011;48624;49.812;8.562;2023-01-23T11:38:07;6.43;;;3.80;;
62332;SDS011;48624;49.812;8.562;2023-01-23T11:40:39;5.87;;;4.23;;
62332;SDS011;48624;49.812;8.562;2023-01-23T11:43:09;6.77;;;4.07;;
62332;SDS011;48624;49.812;8.562;2023-01-23T11:53:51;4.67;;;3.23;;
62332;SDS011;48624;49.812;8.562;2023-01-23T11:56:30;6.93;;;4.07;;
62332;SDS011;48624;49.812;8.562;2023-01-23T12:01:48;6.37;;;3.80;;
62332;SDS011;48624;49.812;8.562;2023-01-23T12:07:44;7.30;;;4.37;;
62332;SDS011;48624;49.812;8.562;2023-01-23T12:10:51;8.47;;;3.43;;
62332;SDS011;48624;49.812;8.562;2023-01-23T12:16:21;9.13;;;3.80;;
62332;SDS011;48624;49.812;8.562;2023-01-23T12:19:06;11.10;;;5.90;;
62332;SDS011;48624;49.812;8.562;2023-01-23T12:38:34;6.20;;;3.30;;
62332;SDS011;48624;49.812;8.562;2023-01-23T12:46:47;19.33;;;11.43;;
62332;SDS011;48624;49.812;8.562;2023-01-23T12:49:17;5.13;;;3.23;;
62332;SDS011;48624;49.812;8.562;2023-01-23T12:51:51;7.95;;;4.53;;
62332;SDS011;48624;49.812;8.562;2023-01-23T12:54:26;6.13;;;4.13;;
62332;SDS011;48624;49.812;8.562;2023-01-23T12:56:58;6.45;;;4.45;;
62332;SDS011;48624;49.812;8.562;2023-01-23T12:59:31;8.10;;;4.40;;
62332;SDS011;48624;49.812;8.562;2023-01-23T13:05:10;7.60;;;3.97;;
62332;SDS011;48624;49.812;8.562;2023-01-23T13:10:30;6.15;;;4.03;;
62332;SDS011;48624;49.812;8.562;2023-01-23T13:13:32;7.13;;;4.40;;
62332;SDS011;48624;49.812;8.562;2023-01-23T13:18:28;6.60;;;3.80;;
62332;SDS011;48624;49.812;8.562;2023-01-23T13:20:57;7.63;;;4.27;;
62332;SDS011;48624;49.812;8.562;2023-01-23T13:23:42;7.03;;;4.13;;
62332;SDS011;48624;49.812;8.562;2023-01-23T13:31:42;6.95;;;4.32;;
62332;SDS011;48624;49.812;8.562;2023-01-23T13:36:42;3.90;;;2.90;;
62332;SDS011;48624;49.812;8.562;2023-01-23T13:41:48;6.60;;;4.03;;
62332;SDS011;48624;49.812;8.562;2023-01-23T13:51:04;6.35;;;3.50;;
62332;SDS011;48624;49.812;8.562;2023-01-23T13:53:43;5.17;;;3.60;;
62332;SDS011;48624;49.812;8.562;2023-01-23T13:56:32;6.93;;;4.00;;
62332;SDS011;48624;49.812;8.562;2023-01-23T13:59:15;7.33;;;3.83;;
62332;SDS011;48624;49.812;8.562;2023-01-23T14:05:48;7.03;;;4.00;;
62332;SDS011;48624;49.812;8.562;2023-01-23T14:08:14;6.85;;;4.30;;
62332;SDS011;48624;49.812;8.562;2023-01-23T14:10:43;5.37;;;3.53;;
62332;SDS011;48624;49.812;8.562;2023-01-23T14:13:13;6.70;;;4.13;;
62332;SDS011;48624;49.812;8.562;2023-01-23T14:15:47;7.00;;;3.70;;
62332;SDS011;48624;49.812;8.562;2023-01-23T14:21:30;6.03;;;3.53;;
62332;SDS011;48624;49.812;8.562;2023-01-23T14:23:59;8.90;;;4.68;;
62332;SDS011;48624;49.812;8.562;2023-01-23T14:26:28;5.77;;;4.03;;
62332;SDS011;48624;49.812;8.562;2023-01-23T14:28:56;5.33;;;3.73;;
62332;SDS011;48624;49.812;8.562;2023-01-23T14:31:23;7.45;;;4.93;;
62332;SDS011;48624;49.812;8.562;2023-01-23T14:34:00;7.95;;;4.32;;
62332;SDS011;48624;49.812;8.562;2023-01-23T14:36:31;4.93;;;3.60;;
62332;SDS011;48624;49.812;8.562;2023-01-23T14:39:00;8.07;;;4.65;;
62332;SDS011;48624;49.812;8.562;2023-01-23T14:41:28;12.10;;;5.80;;
62332;SDS011;48624;49.812;8.562;2023-01-23T14:43:58;11.65;;;7.03;;
62332;SDS011;48624;49.812;8.562;2023-01-23T14:46:30;8.27;;;5.32;;
62332;SDS011;48624;49.812;8.562;2023-01-23T14:48:59;9.40;;;4.72;;
62332;SDS011;48624;49.812;8.562;2023-01-23T14:51:26;8.82;;;4.65;;
62332;SDS011;48624;49.812;8.562;2023-01-23T14:53:53;6.97;;;4.65;;
62332;SDS011;48624;49.812;8.562;2023-01-23T14:56:32;7.10;;;4.25;;
62332;SDS011;48624;49.812;8.562;2023-01-23T14:59:02;7.68;;;4.82;;
62332;SDS011;48624;49.812;8.562;2023-01-23T15:01:30;8.65;;;4.70;;
62332;SDS011;48624;49.812;8.562;2023-01-23T15:03:58;8.82;;;5.43;;
62332;SDS011;48624;49.812;8.562;2023-01-23T15:06:31;5.47;;;3.78;;
62332;SDS011;48624;49.812;8.562;2023-01-23T15:09:12;7.15;;;4.95;;
62332;SDS011;48624;49.812;8.562;2023-01-23T15:11:40;7.72;;;4.25;;
62332;SDS011;48624;49.812;8.562;2023-01-23T15:14:17;8.65;;;4.78;;
62332;SDS011;48624;49.812;8.562;2023-01-23T15:16:47;12.25;;;5.70;;
62332;SDS011;48624;49.812;8.562;2023-01-23T15:19:21;7.32;;;4.75;;
62332;SDS011;48624;49.812;8.562;2023-01-23T15:21:49;9.18;;;5.45;;
62332;SDS011;48624;49.812;8.562;2023-01-23T15:24:29;9.18;;;5.30;;
62332;SDS011;48624;49.812;8.562;2023-01-23T15:29:25;10.52;;;5.90;;
62332;SDS011;48624;49.812;8.562;2023-01-23T15:31:52;7.17;;;4.43;;
62332;SDS011;48624;49.812;8.562;2023-01-23T15:34:22;9.77;;;5.30;;
62332;SDS011;48624;49.812;8.562;2023-01-23T15:37:05;8.93;;;5.10;;
62332;SDS011;48624;49.812;8.562;2023-01-23T15:39:58;8.63;;;5.13;;
62332;SDS011;48624;49.812;8.562;2023-01-23T15:44:57;10.13;;;5.40;;
62332;SDS011;48624;49.812;8.562;2023-01-23T15:47:28;9.37;;;5.30;;
62332;SDS011;48624;49.812;8.562;2023-01-23T15:49:56;9.23;;;5.10;;
62332;SDS011;48624;49.812;8.562;2023-01-23T15:52:26;8.33;;;5.03;;
62332;SDS011;48624;49.812;8.562;2023-01-23T15:54:54;14.60;;;5.50;;
62332;SDS011;48624;49.812;8.562;2023-01-23T15:57:22;9.77;;;5.30;;
62332;SDS011;48624;49.812;8.562;2023-01-23T15:59:47;9.17;;;5.40;;
62332;SDS011;48624;49.812;8.562;2023-01-23T16:02:14;8.02;;;4.95;;
62332;SDS011;48624;49.812;8.562;2023-01-23T16:04:41;8.03;;;4.77;;
62332;SDS011;48624;49.812;8.562;2023-01-23T16:07:07;10.10;;;5.68;;
62332;SDS011;48624;49.812;8.562;2023-01-23T16:09:44;9.43;;;5.50;;
62332;SDS011;48624;49.812;8.562;2023-01-23T16:12:13;9.13;;;4.73;;
62332;SDS011;48624;49.812;8.562;2023-01-23T16:14:43;8.40;;;5.33;;
62332;SDS011;48624;49.812;8.562;2023-01-23T16:17:10;9.40;;;4.80;;
62332;SDS011;48624;49.812;8.562;2023-01-23T16:19:37;9.20;;;5.50;;
62332;SDS011;48624;49.812;8.562;2023-01-23T16:22:02;10.83;;;5.67;;
62332;SDS011;48624;49.812;8.562;2023-01-23T16:24:28;9.77;;;5.87;;
62332;SDS011;48624;49.812;8.562;2023-01-23T16:27:04;8.97;;;5.20;;
62332;SDS011;48624;49.812;8.562;2023-01-23T16:29:32;8.47;;;5.30;;
62332;SDS011;48624;49.812;8.562;2023-01-23T16:31:58;11.43;;;5.13;;
62332;SDS011;48624;49.812;8.562;2023-01-23T16:34:25;11.23;;;6.03;;
62332;SDS011;48624;49.812;8.562;2023-01-23T16:36:52;10.53;;;5.37;;
62332;SDS011;48624;49.812;8.562;2023-01-23T16:39:20;10.73;;;5.33;;
62332;SDS011;48624;49.812;8.562;2023-01-23T16:41:49;10.83;;;5.50;;
62332;SDS011;48624;49.812;8.562;2023-01-23T16:44:18;8.07;;;5.17;;
62332;SDS011;48624;49.812;8.562;2023-01-23T16:46:46;9.80;;;5.03;;
62332;SDS011;48624;49.812;8.562;2023-01-23T16:49:13;8.07;;;4.80;;
62332;SDS011;48624;49.812;8.562;2023-01-23T16:51:39;8.53;;;5.67;;
62332;SDS011;48624;49.812;8.562;2023-01-23T16:54:10;8.47;;;5.67;;